CheckWX is a tool to help pilots better visualize weather data.  It is not intended as a substitute for an official pre-flight weather briefing.

20:56:07 UTC

KSMO METAR
Santa Monica Municipal Airport
Santa Monica, California, USA
Current

10 mins ago

KSMO 202046Z 20008KT 10SM FEW018 BKN025 OVC038 16/10 A3001 RMK AO2
Observed
Apr-20 @ 20:46 UTC
Wind
  • 200° at 8 KTS
Visibility
10 SM
Flight Rules
MVFR
Cloud Levels
  • Few at 1,800' AGL
  • Broken at 2,500' AGL
  • Overcast at 3,800' AGL
Temperature
16°C / 61°F
Dewpoint
10°C / 50°F
Humidity
68%
Altimeter
30.01" Hg
Pressure
1016.22 hPa
Previous

1 hour ago

KSMO 201951Z 20008KT 10SM FEW019 SCT028 OVC036 16/10 A3001 RMK AO2 SLP163 T01610100
Observed
Apr-20 @ 19:51 UTC
Wind
  • 200° at 8 KTS
Visibility
10 SM
Flight Rules
VFR
Cloud Levels
  • Few at 1,900' AGL
  • Scattered at 2,800' AGL
  • Overcast at 3,600' AGL
Temperature
16°C / 61°F
Dewpoint
10°C / 50°F
Humidity
68%
Altimeter
30.01" Hg
Pressure
1016.22 hPa
Previous

2 hours ago

KSMO 201851Z 22005KT 10SM FEW012 OVC028 16/11 A3002 RMK AO2 SLP163 T01560106
Observed
Apr-20 @ 18:51 UTC
Wind
  • 220° at 5 KTS
Visibility
10 SM
Flight Rules
MVFR
Cloud Levels
  • Few at 1,200' AGL
  • Overcast at 2,800' AGL
Temperature
16°C / 61°F
Dewpoint
11°C / 52°F
Humidity
72%
Altimeter
30.02" Hg
Pressure
1016.62 hPa